sensor_id;sensor_type;location;lat;lon;timestamp;pressure;altitude;pressure_sealevel;temperature;humidity
46836;BME280;32573;51.290;6.926;2022-07-29T00:01:30;100135.59;;;20.34;92.07
46836;BME280;32573;51.290;6.926;2022-07-29T00:03:59;100141.81;;;20.33;91.77
46836;BME280;32573;51.290;6.926;2022-07-29T00:06:27;100145.38;;;20.32;91.95
46836;BME280;32573;51.290;6.926;2022-07-29T00:08:56;100135.66;;;20.30;92.04
46836;BME280;32573;51.290;6.926;2022-07-29T00:11:25;100133.03;;;20.28;91.95
46836;BME280;32573;51.290;6.926;2022-07-29T00:13:54;100133.94;;;20.27;92.45
46836;BME280;32573;51.290;6.926;2022-07-29T00:16:22;100129.50;;;20.26;92.26
46836;BME280;32573;51.290;6.926;2022-07-29T00:18:51;100133.94;;;20.25;92.48
46836;BME280;32573;51.290;6.926;2022-07-29T00:21:19;100118.91;;;20.23;92.91
46836;BME280;32573;51.290;6.926;2022-07-29T00:23:47;100120.66;;;20.24;92.60
46836;BME280;32573;51.290;6.926;2022-07-29T00:26:16;100118.91;;;20.21;92.86
46836;BME280;32573;51.290;6.926;2022-07-29T00:28:46;100110.09;;;20.19;93.27
46836;BME280;32573;51.290;6.926;2022-07-29T00:31:14;100110.97;;;20.20;93.35
46836;BME280;32573;51.290;6.926;2022-07-29T00:33:42;100101.22;;;20.19;93.11
46836;BME280;32573;51.290;6.926;2022-07-29T00:36:11;100104.78;;;20.18;93.27
46836;BME280;32573;51.290;6.926;2022-07-29T00:38:38;100097.72;;;20.17;93.28
46836;BME280;32573;51.290;6.926;2022-07-29T00:41:08;100095.94;;;20.16;93.40
46836;BME280;32573;51.290;6.926;2022-07-29T00:43:36;100084.44;;;20.15;93.87
46836;BME280;32573;51.290;6.926;2022-07-29T00:46:06;100087.09;;;20.14;93.86
46836;BME280;32573;51.290;6.926;2022-07-29T00:48:35;100084.50;;;20.12;94.05
46836;BME280;32573;51.290;6.926;2022-07-29T00:51:04;100076.53;;;20.11;93.90
46836;BME280;32573;51.290;6.926;2022-07-29T00:53:35;100069.47;;;20.10;93.99
46836;BME280;32573;51.290;6.926;2022-07-29T00:56:04;100066.81;;;20.08;94.42
46836;BME280;32573;51.290;6.926;2022-07-29T00:58:32;100059.75;;;20.06;94.50
46836;BME280;32573;51.290;6.926;2022-07-29T01:01:01;100062.41;;;20.06;94.69
46836;BME280;32573;51.290;6.926;2022-07-29T01:03:31;100050.91;;;20.03;94.95
46836;BME280;32573;51.290;6.926;2022-07-29T01:05:59;100056.28;;;20.02;94.78
46836;BME280;32573;51.290;6.926;2022-07-29T01:08:28;100053.63;;;20.00;95.17
46836;BME280;32573;51.290;6.926;2022-07-29T01:10:57;100054.53;;;19.99;95.24
46836;BME280;32573;51.290;6.926;2022-07-29T01:13:25;100052.75;;;19.98;95.35
46836;BME280;32573;51.290;6.926;2022-07-29T01:15:57;100047.47;;;19.97;95.50
46836;BME280;32573;51.290;6.926;2022-07-29T01:18:32;100051.88;;;19.96;95.46
46836;BME280;32573;51.290;6.926;2022-07-29T01:21:21;100049.28;;;19.95;95.52
46836;BME280;32573;51.290;6.926;2022-07-29T01:24:04;100051.94;;;19.93;95.93
46836;BME280;32573;51.290;6.926;2022-07-29T01:26:42;100050.19;;;19.92;95.95
46836;BME280;32573;51.290;6.926;2022-07-29T01:29:23;100052.84;;;19.91;96.60
46836;BME280;32573;51.290;6.926;2022-07-29T01:32:08;100038.69;;;19.89;97.01
46836;BME280;32573;51.290;6.926;2022-07-29T01:34:58;100042.28;;;19.88;96.69
46836;BME280;32573;51.290;6.926;2022-07-29T01:37:31;100037.88;;;19.85;97.39
46836;BME280;32573;51.290;6.926;2022-07-29T01:40:02;100042.31;;;19.85;96.87
46836;BME280;32573;51.290;6.926;2022-07-29T01:42:34;100038.78;;;19.82;97.24
46836;BME280;32573;51.290;6.926;2022-07-29T01:45:12;100040.59;;;19.80;97.51
46836;BME280;32573;51.290;6.926;2022-07-29T01:47:46;100042.38;;;19.80;97.79
46836;BME280;32573;51.290;6.926;2022-07-29T01:50:17;100046.81;;;19.78;98.10
46836;BME280;32573;51.290;6.926;2022-07-29T01:52:52;100038.84;;;19.76;98.20
46836;BME280;32573;51.290;6.926;2022-07-29T01:55:25;100032.66;;;19.76;98.13
46836;BME280;32573;51.290;6.926;2022-07-29T01:57:56;100030.94;;;19.72;98.59
46836;BME280;32573;51.290;6.926;2022-07-29T02:00:27;100025.63;;;19.72;98.65
46836;BME280;32573;51.290;6.926;2022-07-29T02:02:59;100037.16;;;19.71;98.74
46836;BME280;32573;51.290;6.926;2022-07-29T02:05:32;100025.66;;;19.69;98.63
46836;BME280;32573;51.290;6.926;2022-07-29T02:08:03;100026.53;;;19.66;99.03
46836;BME280;32573;51.290;6.926;2022-07-29T02:10:33;100023.91;;;19.65;99.42
46836;BME280;32573;51.290;6.926;2022-07-29T02:13:02;100031.03;;;19.63;99.45
46836;BME280;32573;51.290;6.926;2022-07-29T02:15:34;100030.16;;;19.62;99.85
46836;BME280;32573;51.290;6.926;2022-07-29T02:18:06;100029.25;;;19.61;99.56
46836;BME280;32573;51.290;6.926;2022-07-29T02:20:36;100023.06;;;19.61;99.86
46836;BME280;32573;51.290;6.926;2022-07-29T02:23:07;100023.97;;;19.58;99.56
46836;BME280;32573;51.290;6.926;2022-07-29T02:25:38;100028.41;;;19.58;99.86
46836;BME280;32573;51.290;6.926;2022-07-29T02:28:09;100025.75;;;19.56;99.72
46836;BME280;32573;51.290;6.926;2022-07-29T02:30:42;100024.88;;;19.56;100.00
46836;BME280;32573;51.290;6.926;2022-07-29T02:33:13;100025.81;;;19.53;99.93
46836;BME280;32573;51.290;6.926;2022-07-29T02:35:44;100031.13;;;19.53;100.00
46836;BME280;32573;51.290;6.926;2022-07-29T02:38:15;100030.25;;;19.53;99.92
46836;BME280;32573;51.290;6.926;2022-07-29T02:41:05;100034.69;;;19.52;100.00
46836;BME280;32573;51.290;6.926;2022-07-29T02:43:36;100039.09;;;19.52;100.00
46836;BME280;32573;51.290;6.926;2022-07-29T02:46:12;100058.56;;;19.52;100.00
46836;BME280;32573;51.290;6.926;2022-07-29T02:48:59;100070.97;;;19.50;100.00
46836;BME280;32573;51.290;6.926;2022-07-29T02:51:36;100064.81;;;19.48;100.00
46836;BME280;32573;51.290;6.926;2022-07-29T02:54:17;100064.84;;;19.45;100.00
46836;BME280;32573;51.290;6.926;2022-07-29T02:56:47;100063.09;;;19.41;100.00
46836;BME280;32573;51.290;6.926;2022-07-29T02:59:22;100063.09;;;19.41;100.00
46836;BME280;32573;51.290;6.926;2022-07-29T03:01:55;100057.81;;;19.38;100.00
46836;BME280;32573;51.290;6.926;2022-07-29T03:04:26;100064.91;;;19.36;100.00
46836;BME280;32573;51.290;6.926;2022-07-29T03:06:58;100064.91;;;19.34;100.00
46836;BME280;32573;51.290;6.926;2022-07-29T03:09:27;100068.50;;;19.32;100.00
46836;BME280;32573;51.290;6.926;2022-07-29T03:11:57;100065.00;;;19.30;100.00
46836;BME280;32573;51.290;6.926;2022-07-29T03:14:26;100073.00;;;19.25;100.00
46836;BME280;32573;51.290;6.926;2022-07-29T03:16:57;100072.13;;;19.22;100.00
46836;BME280;32573;51.290;6.926;2022-07-29T03:19:26;100076.59;;;19.18;100.00
46836;BME280;32573;51.290;6.926;2022-07-29T03:21:56;100078.38;;;19.16;100.00
46836;BME280;32573;51.290;6.926;2022-07-29T03:24:30;100093.41;;;19.14;100.00
46836;BME280;32573;51.290;6.926;2022-07-29T03:26:58;100097.84;;;19.12;100.00
46836;BME280;32573;51.290;6.926;2022-07-29T03:29:27;100102.31;;;19.10;100.00
46836;BME280;32573;51.290;6.926;2022-07-29T03:32:03;100095.28;;;19.07;100.00
46836;BME280;32573;51.290;6.926;2022-07-29T03:34:35;100098.81;;;19.05;100.00
46836;BME280;32573;51.290;6.926;2022-07-29T03:37:05;100111.19;;;19.04;100.00
46836;BME280;32573;51.290;6.926;2022-07-29T03:39:40;100122.72;;;19.00;100.00
46836;BME280;32573;51.290;6.926;2022-07-29T03:42:12;100128.91;;;18.99;100.00
46836;BME280;32573;51.290;6.926;2022-07-29T03:44:41;100123.63;;;18.96;100.00
46836;BME280;32573;51.290;6.926;2022-07-29T03:47:13;100114.81;;;18.94;100.00
46836;BME280;32573;51.290;6.926;2022-07-29T03:49:44;100131.63;;;18.91;100.00
46836;BME280;32573;51.290;6.926;2022-07-29T03:52:15;100133.41;;;18.89;100.00
46836;BME280;32573;51.290;6.926;2022-07-29T03:54:43;100132.56;;;18.87;100.00
46836;BME280;32573;51.290;6.926;2022-07-29T03:57:14;100125.50;;;18.85;100.00
46836;BME280;32573;51.290;6.926;2022-07-29T03:59:43;100129.94;;;18.83;100.00
46836;BME280;32573;51.290;6.926;2022-07-29T04:02:14;100134.34;;;18.81;100.00
46836;BME280;32573;51.290;6.926;2022-07-29T04:04:49;100126.41;;;18.76;100.00
46836;BME280;32573;51.290;6.926;2022-07-29T04:07:17;100132.59;;;18.73;100.00
46836;BME280;32573;51.290;6.926;2022-07-29T04:09:45;100130.84;;;18.72;100.00
46836;BME280;32573;51.290;6.926;2022-07-29T04:12:14;100135.25;;;18.69;100.00
46836;BME280;32573;51.290;6.926;2022-07-29T04:14:42;100124.69;;;18.66;100.00
46836;BME280;32573;51.290;6.926;2022-07-29T04:17:10;100125.59;;;18.63;100.00
46836;BME280;32573;51.290;6.926;2022-07-29T04:19:40;100112.34;;;18.60;100.00
46836;BME280;32573;51.290;6.926;2022-07-29T04:22:09;100115.03;;;18.57;100.00
46836;BME280;32573;51.290;6.926;2022-07-29T04:24:37;100111.50;;;18.55;100.00
46836;BME280;32573;51.290;6.926;2022-07-29T04:27:10;100108.84;;;18.53;100.00
46836;BME280;32573;51.290;6.926;2022-07-29T04:29:38;100100.03;;;18.50;100.00
46836;BME280;32573;51.290;6.926;2022-07-29T04:32:23;100102.69;;;18.47;100.00
46836;BME280;32573;51.290;6.926;2022-07-29T04:34:53;100106.25;;;18.43;100.00
46836;BME280;32573;51.290;6.926;2022-07-29T04:37:21;100093.00;;;18.41;100.00
46836;BME280;32573;51.290;6.926;2022-07-29T04:39:49;100089.47;;;18.41;100.00
46836;BME280;32573;51.290;6.926;2022-07-29T04:42:18;100091.28;;;18.37;100.00
46836;BME280;32573;51.290;6.926;2022-07-29T04:44:53;100092.16;;;18.35;100.00
46836;BME280;32573;51.290;6.926;2022-07-29T04:47:22;100095.69;;;18.33;100.00
46836;BME280;32573;51.290;6.926;2022-07-29T04:49:50;100108.06;;;18.31;100.00
46836;BME280;32573;51.290;6.926;2022-07-29T04:52:20;100116.91;;;18.30;100.00
46836;BME280;32573;51.290;6.926;2022-07-29T04:54:49;100125.72;;;18.29;100.00
46836;BME280;32573;51.290;6.926;2022-07-29T04:57:17;100130.19;;;18.27;100.00
46836;BME280;32573;51.290;6.926;2022-07-29T04:59:45;100127.53;;;18.27;100.00
46836;BME280;32573;51.290;6.926;2022-07-29T05:02:14;100120.47;;;18.26;100.00
46836;BME280;32573;51.290;6.926;2022-07-29T05:04:42;100120.47;;;18.26;100.00
46836;BME280;32573;51.290;6.926;2022-07-29T05:07:11;100124.00;;;18.25;100.00
46836;BME280;32573;51.290;6.926;2022-07-29T05:09:41;100118.72;;;18.25;100.00
46836;BME280;32573;51.290;6.926;2022-07-29T05:12:09;100120.47;;;18.23;100.00
46836;BME280;32573;51.290;6.926;2022-07-29T05:14:37;100111.66;;;18.21;100.00
46836;BME280;32573;51.290;6.926;2022-07-29T05:17:06;100104.59;;;18.20;100.00
46836;BME280;32573;51.290;6.926;2022-07-29T05:19:34;100101.06;;;18.18;100.00
46836;BME280;32573;51.290;6.926;2022-07-29T05:22:06;100101.97;;;18.17;100.00
46836;BME280;32573;51.290;6.926;2022-07-29T05:24:34;100098.44;;;18.15;100.00
46836;BME280;32573;51.290;6.926;2022-07-29T05:27:04;100103.72;;;18.14;100.00
46836;BME280;32573;51.290;6.926;2022-07-29T05:29:32;100100.19;;;18.11;100.00
46836;BME280;32573;51.290;6.926;2022-07-29T05:32:11;100102.88;;;18.10;100.00
46836;BME280;32573;51.290;6.926;2022-07-29T05:34:40;100102.88;;;18.10;100.00
46836;BME280;32573;51.290;6.926;2022-07-29T05:37:18;100105.53;;;18.10;100.00
46836;BME280;32573;51.290;6.926;2022-07-29T05:39:46;100105.50;;;18.11;100.00
46836;BME280;32573;51.290;6.926;2022-07-29T05:42:25;100101.97;;;18.11;100.00
46836;BME280;32573;51.290;6.926;2022-07-29T05:44:53;100106.38;;;18.12;100.00
46836;BME280;32573;51.290;6.926;2022-07-29T05:47:22;100102.84;;;18.11;100.00
46836;BME280;32573;51.290;6.926;2022-07-29T05:49:51;100109.03;;;18.12;100.00
46836;BME280;32573;51.290;6.926;2022-07-29T05:52:19;100113.47;;;18.13;100.00
46836;BME280;32573;51.290;6.926;2022-07-29T05:54:48;100109.91;;;18.14;100.00
46836;BME280;32573;51.290;6.926;2022-07-29T05:57:17;100109.03;;;18.15;100.00
46836;BME280;32573;51.290;6.926;2022-07-29T05:59:48;100106.38;;;18.15;100.00
46836;BME280;32573;51.290;6.926;2022-07-29T06:02:17;100111.66;;;18.18;100.00
46836;BME280;32573;51.290;6.926;2022-07-29T06:04:45;100111.66;;;18.18;100.00
46836;BME280;32573;51.290;6.926;2022-07-29T06:07:14;100120.50;;;18.20;100.00
46836;BME280;32573;51.290;6.926;2022-07-29T06:09:43;100116.94;;;18.21;100.00
46836;BME280;32573;51.290;6.926;2022-07-29T06:12:11;100118.72;;;18.25;100.00
46836;BME280;32573;51.290;6.926;2022-07-29T06:14:40;100123.97;;;18.28;100.00
46836;BME280;32573;51.290;6.926;2022-07-29T06:17:10;100118.66;;;18.31;100.00
46836;BME280;32573;51.290;6.926;2022-07-29T06:19:38;100116.00;;;18.36;100.00
46836;BME280;32573;51.290;6.926;2022-07-29T06:22:07;100117.75;;;18.40;100.00
46836;BME280;32573;51.290;6.926;2022-07-29T06:24:36;100119.50;;;18.46;100.00
46836;BME280;32573;51.290;6.926;2022-07-29T06:27:08;100119.47;;;18.50;100.00
46836;BME280;32573;51.290;6.926;2022-07-29T06:29:36;100134.47;;;18.56;100.00
46836;BME280;32573;51.290;6.926;2022-07-29T06:32:05;100123.84;;;18.61;100.00
46836;BME280;32573;51.290;6.926;2022-07-29T06:34:37;100137.03;;;18.67;100.00
46836;BME280;32573;51.290;6.926;2022-07-29T06:37:09;100146.75;;;18.72;100.00
46836;BME280;32573;51.290;6.926;2022-07-29T06:39:41;100146.78;;;18.77;100.00
46836;BME280;32573;51.290;6.926;2022-07-29T06:42:10;100152.00;;;18.82;100.00
46836;BME280;32573;51.290;6.926;2022-07-29T06:44:38;100148.47;;;18.86;100.00
46836;BME280;32573;51.290;6.926;2022-07-29T06:47:06;100150.22;;;18.90;100.00
46836;BME280;32573;51.290;6.926;2022-07-29T06:49:36;100139.59;;;18.93;100.00
46836;BME280;32573;51.290;6.926;2022-07-29T06:52:05;100149.28;;;18.97;100.00
46836;BME280;32573;51.290;6.926;2022-07-29T06:54:33;100154.56;;;19.00;100.00
46836;BME280;32573;51.290;6.926;2022-07-29T06:57:01;100150.13;;;19.05;100.00
46836;BME280;32573;51.290;6.926;2022-07-29T06:59:30;100155.38;;;19.08;100.00
46836;BME280;32573;51.290;6.926;2022-07-29T07:02:02;100162.44;;;19.12;100.00
46836;BME280;32573;51.290;6.926;2022-07-29T07:04:30;100170.38;;;19.15;100.00
46836;BME280;32573;51.290;6.926;2022-07-29T07:07:00;100172.13;;;19.18;100.00
46836;BME280;32573;51.290;6.926;2022-07-29T07:09:28;100164.19;;;19.20;100.00
46836;BME280;32573;51.290;6.926;2022-07-29T07:12:07;100167.66;;;19.23;100.00
46836;BME280;32573;51.290;6.926;2022-07-29T07:14:36;100164.13;;;19.24;100.00
46836;BME280;32573;51.290;6.926;2022-07-29T07:17:04;100159.72;;;19.25;100.00
46836;BME280;32573;51.290;6.926;2022-07-29T07:19:34;100168.50;;;19.27;100.00
46836;BME280;32573;51.290;6.926;2022-07-29T07:22:04;100165.88;;;19.28;100.00
46836;BME280;32573;51.290;6.926;2022-07-29T07:24:32;100167.59;;;19.31;100.00
46836;BME280;32573;51.290;6.926;2022-07-29T07:27:00;100172.00;;;19.33;100.00
46836;BME280;32573;51.290;6.926;2022-07-29T07:29:29;100177.28;;;19.38;100.00
46836;BME280;32573;51.290;6.926;2022-07-29T07:31:57;100179.91;;;19.41;100.00
46836;BME280;32573;51.290;6.926;2022-07-29T07:34:27;100176.34;;;19.45;100.00
46836;BME280;32573;51.290;6.926;2022-07-29T07:36:57;100178.97;;;19.50;100.00
46836;BME280;32573;51.290;6.926;2022-07-29T07:39:26;100177.16;;;19.52;100.00
46836;BME280;32573;51.290;6.926;2022-07-29T07:41:55;100174.50;;;19.53;100.00
46836;BME280;32573;51.290;6.926;2022-07-29T07:44:23;100173.59;;;19.56;100.00
46836;BME280;32573;51.290;6.926;2022-07-29T07:46:52;100174.47;;;19.56;100.00
46836;BME280;32573;51.290;6.926;2022-07-29T07:49:20;100172.69;;;19.58;100.00
46836;BME280;32573;51.290;6.926;2022-07-29T07:51:49;100178.00;;;19.58;100.00
46836;BME280;32573;51.290;6.926;2022-07-29T07:54:18;100173.59;;;19.57;100.00
46836;BME280;32573;51.290;6.926;2022-07-29T07:56:48;100170.94;;;19.57;100.00
46836;BME280;32573;51.290;6.926;2022-07-29T07:59:19;100171.81;;;19.59;100.00
46836;BME280;32573;51.290;6.926;2022-07-29T08:01:48;100176.22;;;19.60;100.00
46836;BME280;32573;51.290;6.926;2022-07-29T08:04:22;100175.34;;;19.60;100.00
46836;BME280;32573;51.290;6.926;2022-07-29T08:06:55;100170.03;;;19.60;100.00
46836;BME280;32573;51.290;6.926;2022-07-29T08:09:25;100167.38;;;19.60;100.00
46836;BME280;32573;51.290;6.926;2022-07-29T08:11:58;100174.44;;;19.61;100.00
46836;BME280;32573;51.290;6.926;2022-07-29T08:14:26;100185.09;;;19.59;100.00
46836;BME280;32573;51.290;6.926;2022-07-29T08:16:54;100184.19;;;19.59;100.00
46836;BME280;32573;51.290;6.926;2022-07-29T08:19:23;100185.97;;;19.58;100.00
46836;BME280;32573;51.290;6.926;2022-07-29T08:21:51;100181.56;;;19.57;100.00
46836;BME280;32573;51.290;6.926;2022-07-29T08:24:21;100193.06;;;19.56;100.00
46836;BME280;32573;51.290;6.926;2022-07-29T08:27:08;100188.66;;;19.55;100.00
46836;BME280;32573;51.290;6.926;2022-07-29T08:29:57;100181.63;;;19.50;100.00
46836;BME280;32573;51.290;6.926;2022-07-29T08:32:25;100184.28;;;19.47;100.00
46836;BME280;32573;51.290;6.926;2022-07-29T08:35:15;100196.69;;;19.46;100.00
46836;BME280;32573;51.290;6.926;2022-07-29T08:37:43;100201.13;;;19.44;100.00
46836;BME280;32573;51.290;6.926;2022-07-29T08:40:12;100201.13;;;19.44;100.00
46836;BME280;32573;51.290;6.926;2022-07-29T08:42:43;100189.66;;;19.42;100.00
46836;BME280;32573;51.290;6.926;2022-07-29T08:45:12;100174.63;;;19.38;100.00
46836;BME280;32573;51.290;6.926;2022-07-29T08:47:41;100179.97;;;19.35;100.00
46836;BME280;32573;51.290;6.926;2022-07-29T08:50:12;100179.13;;;19.30;100.00
46836;BME280;32573;51.290;6.926;2022-07-29T08:52:41;100180.91;;;19.26;100.00
46836;BME280;32573;51.290;6.926;2022-07-29T08:55:10;100178.28;;;19.22;100.00
46836;BME280;32573;51.290;6.926;2022-07-29T08:57:39;100176.56;;;19.17;100.00
46836;BME280;32573;51.290;6.926;2022-07-29T09:00:22;100163.34;;;19.08;100.00
46836;BME280;32573;51.290;6.926;2022-07-29T09:02:56;100160.75;;;19.02;100.00
46836;BME280;32573;51.290;6.926;2022-07-29T09:05:26;100156.38;;;18.92;100.00
46836;BME280;32573;51.290;6.926;2022-07-29T09:07:54;100157.34;;;18.85;100.00
46836;BME280;32573;51.290;6.926;2022-07-29T09:10:23;100152.91;;;18.79;100.00
46836;BME280;32573;51.290;6.926;2022-07-29T09:12:52;100148.50;;;18.73;100.00
46836;BME280;32573;51.290;6.926;2022-07-29T09:15:23;100152.97;;;18.68;100.00
46836;BME280;32573;51.290;6.926;2022-07-29T09:17:52;100138.84;;;18.63;100.00
46836;BME280;32573;51.290;6.926;2022-07-29T09:20:22;100144.16;;;18.60;100.00
46836;BME280;32573;51.290;6.926;2022-07-29T09:22:51;100143.28;;;18.58;100.00
46836;BME280;32573;51.290;6.926;2022-07-29T09:25:33;100148.63;;;18.55;100.00
46836;BME280;32573;51.290;6.926;2022-07-29T09:28:06;100155.66;;;18.56;100.00
46836;BME280;32573;51.290;6.926;2022-07-29T09:30:41;100145.06;;;18.56;100.00
46836;BME280;32573;51.290;6.926;2022-07-29T09:33:18;100152.13;;;18.56;100.00
46836;BME280;32573;51.290;6.926;2022-07-29T09:35:58;100155.66;;;18.56;100.00
46836;BME280;32573;51.290;6.926;2022-07-29T09:38:28;100163.59;;;18.59;100.00
46836;BME280;32573;51.290;6.926;2022-07-29T09:40:57;100154.75;;;18.62;100.00
46836;BME280;32573;51.290;6.926;2022-07-29T09:43:33;100157.38;;;18.66;100.00
46836;BME280;32573;51.290;6.926;2022-07-29T09:46:11;100158.22;;;18.71;100.00
46836;BME280;32573;51.290;6.926;2022-07-29T09:48:40;100159.13;;;18.77;100.00
46836;BME280;32573;51.290;6.926;2022-07-29T09:51:16;100153.81;;;18.83;100.00
46836;BME280;32573;51.290;6.926;2022-07-29T09:53:48;100155.53;;;18.87;100.00
46836;BME280;32573;51.290;6.926;2022-07-29T09:56:19;100157.28;;;18.92;100.00
46836;BME280;32573;51.290;6.926;2022-07-29T09:59:05;100147.50;;;18.96;100.00
46836;BME280;32573;51.290;6.926;2022-07-29T10:01:34;100151.91;;;18.99;100.00
46836;BME280;32573;51.290;6.926;2022-07-29T10:04:03;100151.91;;;19.00;100.00
46836;BME280;32573;51.290;6.926;2022-07-29T10:06:32;100162.50;;;19.03;100.00
46836;BME280;32573;51.290;6.926;2022-07-29T10:09:07;100168.69;;;19.04;100.00
46836;BME280;32573;51.290;6.926;2022-07-29T10:11:36;100175.78;;;19.05;100.00
46836;BME280;32573;51.290;6.926;2022-07-29T10:14:16;100163.38;;;19.05;100.00
46836;BME280;32573;51.290;6.926;2022-07-29T10:16:45;100157.16;;;19.06;100.00
46836;BME280;32573;51.290;6.926;2022-07-29T10:19:14;100158.94;;;19.07;100.00
46836;BME280;32573;51.290;6.926;2022-07-29T10:21:43;100159.81;;;19.08;100.00
46836;BME280;32573;51.290;6.926;2022-07-29T10:24:12;100163.34;;;19.10;100.00
46836;BME280;32573;51.290;6.926;2022-07-29T10:26:41;100165.97;;;19.11;100.00
46836;BME280;32573;51.290;6.926;2022-07-29T10:29:10;100169.50;;;19.13;100.00
46836;BME280;32573;51.290;6.926;2022-07-29T10:31:46;100174.78;;;19.16;100.00
46836;BME280;32573;51.290;6.926;2022-07-29T10:34:27;100163.28;;;19.17;100.00
46836;BME280;32573;51.290;6.926;2022-07-29T10:37:07;100178.28;;;19.22;100.00
46836;BME280;32573;51.290;6.926;2022-07-29T10:39:45;100174.72;;;19.24;100.00
46836;BME280;32573;51.290;6.926;2022-07-29T10:42:21;100179.13;;;19.28;100.00
46836;BME280;32573;51.290;6.926;2022-07-29T10:45:02;100183.53;;;19.31;100.00
46836;BME280;32573;51.290;6.926;2022-07-29T10:47:32;100186.16;;;19.34;100.00
46836;BME280;32573;51.290;6.926;2022-07-29T10:50:04;100187.00;;;19.39;100.00
46836;BME280;32573;51.290;6.926;2022-07-29T10:52:53;100186.09;;;19.43;100.00
46836;BME280;32573;51.290;6.926;2022-07-29T10:55:33;100179.88;;;19.47;100.00
46836;BME280;32573;51.290;6.926;2022-07-29T10:58:14;100174.53;;;19.50;100.00
46836;BME280;32573;51.290;6.926;2022-07-29T11:00:45;100179.81;;;19.53;100.00
46836;BME280;32573;51.290;6.926;2022-07-29T11:03:44;100180.66;;;19.58;100.00
46836;BME280;32573;51.290;6.926;2022-07-29T11:06:17;100179.75;;;19.63;100.00
46836;BME280;32573;51.290;6.926;2022-07-29T11:09:17;100185.03;;;19.69;100.00
46836;BME280;32573;51.290;6.926;2022-07-29T11:12:01;100181.41;;;19.76;100.00
46836;BME280;32573;51.290;6.926;2022-07-29T11:14:56;100190.19;;;19.84;100.00
46836;BME280;32573;51.290;6.926;2022-07-29T11:17:26;100186.56;;;19.91;100.00
46836;BME280;32573;51.290;6.926;2022-07-29T11:20:30;100178.53;;;20.00;100.00
46836;BME280;32573;51.290;6.926;2022-07-29T11:23:01;100186.41;;;20.10;100.00
46836;BME280;32573;51.290;6.926;2022-07-29T11:25:30;100179.19;;;20.21;100.00
46836;BME280;32573;51.290;6.926;2022-07-29T11:28:20;100179.94;;;20.32;100.00
46836;BME280;32573;51.290;6.926;2022-07-29T11:30:52;100179.78;;;20.46;100.00
46836;BME280;32573;51.290;6.926;2022-07-29T11:33:29;100174.31;;;20.60;100.00
46836;BME280;32573;51.290;6.926;2022-07-29T11:36:18;100185.63;;;20.74;100.00
46836;BME280;32573;51.290;6.926;2022-07-29T11:39:28;100194.28;;;20.92;100.00
46836;BME280;32573;51.290;6.926;2022-07-29T11:45:12;100175.16;;;21.24;100.00
46836;BME280;32573;51.290;6.926;2022-07-29T11:48:01;100176.78;;;21.34;100.00
46836;BME280;32573;51.290;6.926;2022-07-29T11:50:51;100178.44;;;21.44;100.00
46836;BME280;32573;51.290;6.926;2022-07-29T11:53:20;100184.47;;;21.54;100.00
46836;BME280;32573;51.290;6.926;2022-07-29T11:55:54;100180.72;;;21.67;100.00
46836;BME280;32573;51.290;6.926;2022-07-29T11:58:44;100182.31;;;21.78;100.00
46836;BME280;32573;51.290;6.926;2022-07-29T12:01:13;100180.38;;;21.86;100.00
46836;BME280;32573;51.290;6.926;2022-07-29T12:06:11;100181.88;;;22.02;100.00
46836;BME280;32573;51.290;6.926;2022-07-29T12:08:44;100181.72;;;22.08;100.00
46836;BME280;32573;51.290;6.926;2022-07-29T12:11:19;100180.72;;;22.15;100.00
46836;BME280;32573;51.290;6.926;2022-07-29T12:13:50;100183.25;;;22.25;100.00
46836;BME280;32573;51.290;6.926;2022-07-29T12:16:19;100174.06;;;22.39;100.00
46836;BME280;32573;51.290;6.926;2022-07-29T12:19:00;100186.19;;;22.54;100.00
46836;BME280;32573;51.290;6.926;2022-07-29T12:21:43;100174.25;;;22.71;100.00
46836;BME280;32573;51.290;6.926;2022-07-29T12:24:25;100166.00;;;22.83;100.00
46836;BME280;32573;51.290;6.926;2022-07-29T12:26:56;100174.59;;;22.97;100.00
46836;BME280;32573;51.290;6.926;2022-07-29T12:29:25;100185.91;;;23.09;100.00
46836;BME280;32573;51.290;6.926;2022-07-29T12:32:02;100173.22;;;23.18;100.00
46836;BME280;32573;51.290;6.926;2022-07-29T12:34:41;100181.00;;;23.29;100.00
46836;BME280;32573;51.290;6.926;2022-07-29T12:37:10;100175.41;;;23.38;100.00
46836;BME280;32573;51.290;6.926;2022-07-29T12:39:39;100181.47;;;23.46;100.00
46836;BME280;32573;51.290;6.926;2022-07-29T12:42:14;100175.00;;;23.54;100.00
46836;BME280;32573;51.290;6.926;2022-07-29T12:44:46;100178.41;;;23.62;100.00
46836;BME280;32573;51.290;6.926;2022-07-29T12:47:15;100178.22;;;23.68;100.00
46836;BME280;32573;51.290;6.926;2022-07-29T12:49:45;100169.22;;;23.72;100.00
46836;BME280;32573;51.290;6.926;2022-07-29T12:52:23;100167.25;;;23.80;100.00
46836;BME280;32573;51.290;6.926;2022-07-29T12:54:52;100172.34;;;23.89;100.00
46836;BME280;32573;51.290;6.926;2022-07-29T12:57:22;100176.41;;;24.04;100.00
46836;BME280;32573;51.290;6.926;2022-07-29T13:00:03;100167.13;;;24.18;100.00
46836;BME280;32573;51.290;6.926;2022-07-29T13:02:32;100166.00;;;24.26;100.00
46836;BME280;32573;51.290;6.926;2022-07-29T13:05:05;100166.69;;;24.33;100.00
46836;BME280;32573;51.290;6.926;2022-07-29T13:07:34;100171.81;;;24.41;100.00
46836;BME280;32573;51.290;6.926;2022-07-29T13:10:23;100169.06;;;24.44;100.00
46836;BME280;32573;51.290;6.926;2022-07-29T13:13:03;100181.47;;;24.48;100.00
46836;BME280;32573;51.290;6.926;2022-07-29T13:15:33;100178.84;;;24.46;100.00